sensor_id;sensor_type;location;lat;lon;timestamp;temperature;humidity
43043;DHT22;28667;50.758;6.096;2022-11-04T00:01:36;9.50;99.90
43043;DHT22;28667;50.758;6.096;2022-11-04T00:04:02;9.50;99.90
43043;DHT22;28667;50.758;6.096;2022-11-04T00:06:28;9.50;99.90
43043;DHT22;28667;50.758;6.096;2022-11-04T00:08:56;9.50;99.90
43043;DHT22;28667;50.758;6.096;2022-11-04T00:11:23;9.40;99.90
43043;DHT22;28667;50.758;6.096;2022-11-04T00:14:08;9.40;99.90
43043;DHT22;28667;50.758;6.096;2022-11-04T00:16:35;9.40;99.90
43043;DHT22;28667;50.758;6.096;2022-11-04T00:19:19;9.40;99.90
43043;DHT22;28667;50.758;6.096;2022-11-04T00:21:45;9.30;99.90
43043;DHT22;28667;50.758;6.096;2022-11-04T00:24:29;9.30;99.90
43043;DHT22;28667;50.758;6.096;2022-11-04T00:26:55;9.20;99.90
43043;DHT22;28667;50.758;6.096;2022-11-04T00:29:40;9.10;99.90
43043;DHT22;28667;50.758;6.096;2022-11-04T00:32:06;9.10;99.90
43043;DHT22;28667;50.758;6.096;2022-11-04T00:34:50;9.00;99.90
43043;DHT22;28667;50.758;6.096;2022-11-04T00:37:16;8.90;99.90
43043;DHT22;28667;50.758;6.096;2022-11-04T00:39:42;8.90;99.90
43043;DHT22;28667;50.758;6.096;2022-11-04T00:42:08;8.90;99.90
43043;DHT22;28667;50.758;6.096;2022-11-04T00:44:34;8.80;99.90
43043;DHT22;28667;50.758;6.096;2022-11-04T00:47:00;8.80;99.90
43043;DHT22;28667;50.758;6.096;2022-11-04T00:49:26;8.70;99.90
43043;DHT22;28667;50.758;6.096;2022-11-04T00:51:52;8.70;99.90
43043;DHT22;28667;50.758;6.096;2022-11-04T00:54:18;8.60;99.90
43043;DHT22;28667;50.758;6.096;2022-11-04T00:56:43;8.60;99.90
43043;DHT22;28667;50.758;6.096;2022-11-04T00:59:10;8.60;99.90
43043;DHT22;28667;50.758;6.096;2022-11-04T01:01:36;8.50;99.90
43043;DHT22;28667;50.758;6.096;2022-11-04T01:04:02;8.60;99.90
43043;DHT22;28667;50.758;6.096;2022-11-04T01:06:28;8.50;99.90
43043;DHT22;28667;50.758;6.096;2022-11-04T01:08:59;8.50;99.90
43043;DHT22;28667;50.758;6.096;2022-11-04T01:11:27;8.50;99.90
43043;DHT22;28667;50.758;6.096;2022-11-04T01:13:54;8.40;99.90
43043;DHT22;28667;50.758;6.096;2022-11-04T01:16:20;8.40;99.90
43043;DHT22;28667;50.758;6.096;2022-11-04T01:18:47;8.40;99.90
43043;DHT22;28667;50.758;6.096;2022-11-04T01:21:14;8.40;99.90
43043;DHT22;28667;50.758;6.096;2022-11-04T01:23:42;8.40;99.90
43043;DHT22;28667;50.758;6.096;2022-11-04T01:26:13;8.40;99.90
43043;DHT22;28667;50.758;6.096;2022-11-04T01:28:40;8.30;99.90
43043;DHT22;28667;50.758;6.096;2022-11-04T01:31:13;8.30;99.90
43043;DHT22;28667;50.758;6.096;2022-11-04T01:33:40;8.30;99.90
43043;DHT22;28667;50.758;6.096;2022-11-04T01:36:07;8.20;99.90
43043;DHT22;28667;50.758;6.096;2022-11-04T01:38:34;8.30;99.90
43043;DHT22;28667;50.758;6.096;2022-11-04T01:41:00;8.30;99.90
43043;DHT22;28667;50.758;6.096;2022-11-04T01:43:51;8.30;99.90
43043;DHT22;28667;50.758;6.096;2022-11-04T01:49:03;8.20;99.90
43043;DHT22;28667;50.758;6.096;2022-11-04T01:51:33;8.20;99.90
43043;DHT22;28667;50.758;6.096;2022-11-04T01:54:01;8.20;99.90
43043;DHT22;28667;50.758;6.096;2022-11-04T01:56:29;8.20;99.90
43043;DHT22;28667;50.758;6.096;2022-11-04T01:58:56;8.20;99.90
43043;DHT22;28667;50.758;6.096;2022-11-04T02:01:24;8.20;99.90
43043;DHT22;28667;50.758;6.096;2022-11-04T02:03:57;8.20;99.90
43043;DHT22;28667;50.758;6.096;2022-11-04T02:06:46;8.10;99.90
43043;DHT22;28667;50.758;6.096;2022-11-04T02:09:12;8.10;99.90
43043;DHT22;28667;50.758;6.096;2022-11-04T02:11:38;8.10;99.90
43043;DHT22;28667;50.758;6.096;2022-11-04T02:14:22;8.10;99.90
43043;DHT22;28667;50.758;6.096;2022-11-04T02:16:49;8.00;99.90
43043;DHT22;28667;50.758;6.096;2022-11-04T02:27:53;8.00;99.90
43043;DHT22;28667;50.758;6.096;2022-11-04T02:30:30;8.00;99.90
43043;DHT22;28667;50.758;6.096;2022-11-04T02:44:12;7.90;99.90
43043;DHT22;28667;50.758;6.096;2022-11-04T02:46:58;7.90;99.90
43043;DHT22;28667;50.758;6.096;2022-11-04T02:49:40;7.80;99.90
43043;DHT22;28667;50.758;6.096;2022-11-04T02:52:15;7.80;99.90
43043;DHT22;28667;50.758;6.096;2022-11-04T02:55:01;7.70;99.90
43043;DHT22;28667;50.758;6.096;2022-11-04T02:57:34;7.70;99.90
43043;DHT22;28667;50.758;6.096;2022-11-04T03:00:06;7.70;99.90
43043;DHT22;28667;50.758;6.096;2022-11-04T03:02:43;7.60;99.90
43043;DHT22;28667;50.758;6.096;2022-11-04T03:05:13;7.60;99.90
43043;DHT22;28667;50.758;6.096;2022-11-04T03:07:43;7.60;99.90
43043;DHT22;28667;50.758;6.096;2022-11-04T03:10:23;7.60;99.90
43043;DHT22;28667;50.758;6.096;2022-11-04T03:13:17;7.60;99.90
43043;DHT22;28667;50.758;6.096;2022-11-04T03:16:00;7.50;99.90
43043;DHT22;28667;50.758;6.096;2022-11-04T03:18:35;7.50;99.90
43043;DHT22;28667;50.758;6.096;2022-11-04T03:21:06;7.50;99.90
43043;DHT22;28667;50.758;6.096;2022-11-04T03:23:37;7.50;99.90
43043;DHT22;28667;50.758;6.096;2022-11-04T03:26:13;7.50;99.90
43043;DHT22;28667;50.758;6.096;2022-11-04T03:34:25;7.50;99.90
43043;DHT22;28667;50.758;6.096;2022-11-04T03:36:53;7.50;99.90
43043;DHT22;28667;50.758;6.096;2022-11-04T03:39:19;7.50;99.90
43043;DHT22;28667;50.758;6.096;2022-11-04T03:41:56;7.50;99.90
43043;DHT22;28667;50.758;6.096;2022-11-04T03:44:23;7.50;99.90
43043;DHT22;28667;50.758;6.096;2022-11-04T03:46:51;7.50;99.90
43043;DHT22;28667;50.758;6.096;2022-11-04T03:49:20;7.40;99.90
43043;DHT22;28667;50.758;6.096;2022-11-04T03:51:48;7.40;99.90
43043;DHT22;28667;50.758;6.096;2022-11-04T03:54:14;7.40;99.90
43043;DHT22;28667;50.758;6.096;2022-11-04T03:56:59;7.40;99.90
43043;DHT22;28667;50.758;6.096;2022-11-04T03:59:53;7.30;99.90
43043;DHT22;28667;50.758;6.096;2022-11-04T04:02:50;7.30;99.90
43043;DHT22;28667;50.758;6.096;2022-11-04T04:18:39;7.00;99.90
43043;DHT22;28667;50.758;6.096;2022-11-04T04:21:11;7.00;99.90
43043;DHT22;28667;50.758;6.096;2022-11-04T04:23:39;7.00;99.90
43043;DHT22;28667;50.758;6.096;2022-11-04T04:26:28;7.00;99.90
43043;DHT22;28667;50.758;6.096;2022-11-04T04:29:14;6.90;99.90
43043;DHT22;28667;50.758;6.096;2022-11-04T04:31:43;6.90;99.90
43043;DHT22;28667;50.758;6.096;2022-11-04T04:34:24;6.90;99.90
43043;DHT22;28667;50.758;6.096;2022-11-04T04:36:56;6.90;99.90
43043;DHT22;28667;50.758;6.096;2022-11-04T04:39:46;6.90;99.90
43043;DHT22;28667;50.758;6.096;2022-11-04T04:42:38;6.80;99.90
43043;DHT22;28667;50.758;6.096;2022-11-04T04:45:33;6.80;99.90
43043;DHT22;28667;50.758;6.096;2022-11-04T04:48:01;6.80;99.90
43043;DHT22;28667;50.758;6.096;2022-11-04T04:50:30;6.80;99.90
43043;DHT22;28667;50.758;6.096;2022-11-04T04:52:59;6.70;99.90
43043;DHT22;28667;50.758;6.096;2022-11-04T04:55:25;6.70;99.90
43043;DHT22;28667;50.758;6.096;2022-11-04T04:57:54;6.70;99.90
43043;DHT22;28667;50.758;6.096;2022-11-04T05:00:23;6.70;99.90
43043;DHT22;28667;50.758;6.096;2022-11-04T05:02:50;6.70;99.90
43043;DHT22;28667;50.758;6.096;2022-11-04T05:05:16;6.70;99.90
43043;DHT22;28667;50.758;6.096;2022-11-04T05:07:42;6.70;99.90
43043;DHT22;28667;50.758;6.096;2022-11-04T05:10:10;6.70;99.90
43043;DHT22;28667;50.758;6.096;2022-11-04T05:12:37;6.70;99.90
43043;DHT22;28667;50.758;6.096;2022-11-04T05:15:23;6.70;99.90
43043;DHT22;28667;50.758;6.096;2022-11-04T05:17:59;6.70;99.90
43043;DHT22;28667;50.758;6.096;2022-11-04T05:20:26;6.70;99.90
43043;DHT22;28667;50.758;6.096;2022-11-04T05:22:53;6.70;99.90
43043;DHT22;28667;50.758;6.096;2022-11-04T05:25:19;6.70;99.90
43043;DHT22;28667;50.758;6.096;2022-11-04T05:27:48;6.70;99.90
43043;DHT22;28667;50.758;6.096;2022-11-04T05:30:17;6.70;99.90
43043;DHT22;28667;50.758;6.096;2022-11-04T05:32:43;6.70;99.90
43043;DHT22;28667;50.758;6.096;2022-11-04T05:35:09;6.70;99.90
43043;DHT22;28667;50.758;6.096;2022-11-04T05:37:36;6.70;99.90
43043;DHT22;28667;50.758;6.096;2022-11-04T05:40:02;6.70;99.90
43043;DHT22;28667;50.758;6.096;2022-11-04T05:42:29;6.70;99.90
43043;DHT22;28667;50.758;6.096;2022-11-04T05:45:00;6.80;99.90
43043;DHT22;28667;50.758;6.096;2022-11-04T05:47:26;6.80;99.90
43043;DHT22;28667;50.758;6.096;2022-11-04T05:49:52;6.90;99.90
43043;DHT22;28667;50.758;6.096;2022-11-04T05:52:18;6.90;99.90
43043;DHT22;28667;50.758;6.096;2022-11-04T05:54:44;6.90;99.90
43043;DHT22;28667;50.758;6.096;2022-11-04T05:57:10;6.90;99.90
43043;DHT22;28667;50.758;6.096;2022-11-04T05:59:38;6.90;99.90
43043;DHT22;28667;50.758;6.096;2022-11-04T06:02:07;6.90;99.90
43043;DHT22;28667;50.758;6.096;2022-11-04T06:04:36;6.90;99.90
43043;DHT22;28667;50.758;6.096;2022-11-04T06:07:02;6.90;99.90
43043;DHT22;28667;50.758;6.096;2022-11-04T06:09:28;6.90;99.90
43043;DHT22;28667;50.758;6.096;2022-11-04T06:12:13;7.00;99.90
43043;DHT22;28667;50.758;6.096;2022-11-04T06:14:40;7.00;99.90
43043;DHT22;28667;50.758;6.096;2022-11-04T06:17:06;7.00;99.90
43043;DHT22;28667;50.758;6.096;2022-11-04T06:19:32;7.00;99.90
43043;DHT22;28667;50.758;6.096;2022-11-04T06:21:59;7.00;99.90
43043;DHT22;28667;50.758;6.096;2022-11-04T06:24:25;7.00;99.90
43043;DHT22;28667;50.758;6.096;2022-11-04T06:26:56;6.90;99.90
43043;DHT22;28667;50.758;6.096;2022-11-04T06:29:23;6.90;99.90
43043;DHT22;28667;50.758;6.096;2022-11-04T06:31:49;6.90;99.90
43043;DHT22;28667;50.758;6.096;2022-11-04T06:34:23;6.90;99.90
43043;DHT22;28667;50.758;6.096;2022-11-04T06:36:50;6.90;99.90
43043;DHT22;28667;50.758;6.096;2022-11-04T06:39:16;7.00;99.90
43043;DHT22;28667;50.758;6.096;2022-11-04T06:41:42;7.10;99.90
43043;DHT22;28667;50.758;6.096;2022-11-04T06:44:09;7.20;99.90
43043;DHT22;28667;50.758;6.096;2022-11-04T06:46:37;7.20;99.90
43043;DHT22;28667;50.758;6.096;2022-11-04T06:49:09;7.30;99.90
43043;DHT22;28667;50.758;6.096;2022-11-04T06:51:36;7.40;99.90
43043;DHT22;28667;50.758;6.096;2022-11-04T06:54:02;7.40;99.90
43043;DHT22;28667;50.758;6.096;2022-11-04T06:56:29;7.40;99.90
43043;DHT22;28667;50.758;6.096;2022-11-04T06:58:55;7.50;99.90
43043;DHT22;28667;50.758;6.096;2022-11-04T07:01:24;7.50;99.90
43043;DHT22;28667;50.758;6.096;2022-11-04T07:03:55;7.50;99.90
43043;DHT22;28667;50.758;6.096;2022-11-04T07:06:21;7.50;99.90
43043;DHT22;28667;50.758;6.096;2022-11-04T07:08:48;7.50;99.90
43043;DHT22;28667;50.758;6.096;2022-11-04T07:11:16;7.50;99.90
43043;DHT22;28667;50.758;6.096;2022-11-04T07:13:43;7.50;99.90
43043;DHT22;28667;50.758;6.096;2022-11-04T07:16:09;7.60;99.90
43043;DHT22;28667;50.758;6.096;2022-11-04T07:18:35;7.60;99.90
43043;DHT22;28667;50.758;6.096;2022-11-04T07:21:02;7.60;99.90
43043;DHT22;28667;50.758;6.096;2022-11-04T07:23:28;7.70;99.90
43043;DHT22;28667;50.758;6.096;2022-11-04T07:26:01;7.70;99.90
43043;DHT22;28667;50.758;6.096;2022-11-04T07:28:27;7.70;99.90
43043;DHT22;28667;50.758;6.096;2022-11-04T07:30:58;7.70;99.90
43043;DHT22;28667;50.758;6.096;2022-11-04T07:33:25;7.70;99.90
43043;DHT22;28667;50.758;6.096;2022-11-04T07:35:51;7.70;99.90
43043;DHT22;28667;50.758;6.096;2022-11-04T07:38:19;7.70;99.90
43043;DHT22;28667;50.758;6.096;2022-11-04T07:40:45;7.80;99.90
43043;DHT22;28667;50.758;6.096;2022-11-04T07:43:11;7.90;99.90
43043;DHT22;28667;50.758;6.096;2022-11-04T07:45:37;7.90;99.90
43043;DHT22;28667;50.758;6.096;2022-11-04T07:48:03;8.00;99.90
43043;DHT22;28667;50.758;6.096;2022-11-04T07:50:29;8.00;99.90
43043;DHT22;28667;50.758;6.096;2022-11-04T07:52:56;8.10;99.90
43043;DHT22;28667;50.758;6.096;2022-11-04T07:55:22;8.20;99.90
43043;DHT22;28667;50.758;6.096;2022-11-04T07:57:48;8.20;99.90
43043;DHT22;28667;50.758;6.096;2022-11-04T08:00:15;8.30;99.90
43043;DHT22;28667;50.758;6.096;2022-11-04T08:02:42;8.30;99.90
43043;DHT22;28667;50.758;6.096;2022-11-04T08:05:09;8.40;99.90
43043;DHT22;28667;50.758;6.096;2022-11-04T08:07:35;8.50;99.90
43043;DHT22;28667;50.758;6.096;2022-11-04T08:10:02;8.50;99.90
43043;DHT22;28667;50.758;6.096;2022-11-04T08:12:28;8.50;99.90
43043;DHT22;28667;50.758;6.096;2022-11-04T08:14:54;8.60;99.90
43043;DHT22;28667;50.758;6.096;2022-11-04T08:17:20;8.60;99.90
43043;DHT22;28667;50.758;6.096;2022-11-04T08:19:45;8.70;99.90
43043;DHT22;28667;50.758;6.096;2022-11-04T08:22:11;8.70;99.90
43043;DHT22;28667;50.758;6.096;2022-11-04T08:24:37;8.80;99.90
43043;DHT22;28667;50.758;6.096;2022-11-04T08:27:05;8.80;99.90
43043;DHT22;28667;50.758;6.096;2022-11-04T08:29:35;8.90;99.90
43043;DHT22;28667;50.758;6.096;2022-11-04T08:32:02;8.90;99.90
43043;DHT22;28667;50.758;6.096;2022-11-04T08:34:28;8.90;99.90
43043;DHT22;28667;50.758;6.096;2022-11-04T08:36:54;8.90;99.90
43043;DHT22;28667;50.758;6.096;2022-11-04T08:39:22;9.00;99.90
43043;DHT22;28667;50.758;6.096;2022-11-04T08:41:49;9.00;99.90
43043;DHT22;28667;50.758;6.096;2022-11-04T08:44:16;9.10;99.90
43043;DHT22;28667;50.758;6.096;2022-11-04T08:46:43;9.10;99.90
43043;DHT22;28667;50.758;6.096;2022-11-04T08:49:10;9.10;99.90
43043;DHT22;28667;50.758;6.096;2022-11-04T08:51:37;9.10;99.90
43043;DHT22;28667;50.758;6.096;2022-11-04T08:54:04;9.10;99.90
43043;DHT22;28667;50.758;6.096;2022-11-04T08:56:33;9.20;99.90
43043;DHT22;28667;50.758;6.096;2022-11-04T08:59:00;9.20;99.90
43043;DHT22;28667;50.758;6.096;2022-11-04T09:01:30;9.20;99.90
43043;DHT22;28667;50.758;6.096;2022-11-04T09:03:59;9.30;99.90
43043;DHT22;28667;50.758;6.096;2022-11-04T09:06:29;9.30;99.90
43043;DHT22;28667;50.758;6.096;2022-11-04T09:08:56;9.40;99.90
43043;DHT22;28667;50.758;6.096;2022-11-04T09:11:27;9.50;99.90
43043;DHT22;28667;50.758;6.096;2022-11-04T09:13:53;9.60;99.90
43043;DHT22;28667;50.758;6.096;2022-11-04T09:16:20;9.60;99.90
43043;DHT22;28667;50.758;6.096;2022-11-04T09:18:46;9.70;99.90
43043;DHT22;28667;50.758;6.096;2022-11-04T09:21:12;9.80;99.90
43043;DHT22;28667;50.758;6.096;2022-11-04T09:23:38;9.90;99.90
43043;DHT22;28667;50.758;6.096;2022-11-04T09:26:10;10.00;99.90
43043;DHT22;28667;50.758;6.096;2022-11-04T09:28:37;10.10;99.90
43043;DHT22;28667;50.758;6.096;2022-11-04T09:31:06;10.10;99.90
43043;DHT22;28667;50.758;6.096;2022-11-04T09:33:33;10.20;99.90
43043;DHT22;28667;50.758;6.096;2022-11-04T09:35:59;10.20;99.90
43043;DHT22;28667;50.758;6.096;2022-11-04T09:38:25;10.20;99.90
43043;DHT22;28667;50.758;6.096;2022-11-04T09:40:51;10.30;99.90
43043;DHT22;28667;50.758;6.096;2022-11-04T09:46:03;10.40;99.90
43043;DHT22;28667;50.758;6.096;2022-11-04T09:48:36;10.50;99.90
43043;DHT22;28667;50.758;6.096;2022-11-04T09:51:05;10.50;99.90
43043;DHT22;28667;50.758;6.096;2022-11-04T09:53:50;10.60;99.90
43043;DHT22;28667;50.758;6.096;2022-11-04T09:56:19;10.60;99.90
43043;DHT22;28667;50.758;6.096;2022-11-04T09:58:45;10.60;99.90
43043;DHT22;28667;50.758;6.096;2022-11-04T10:01:14;10.60;99.90
43043;DHT22;28667;50.758;6.096;2022-11-04T10:21:39;10.80;99.90
43043;DHT22;28667;50.758;6.096;2022-11-04T10:26:52;10.80;99.90
43043;DHT22;28667;50.758;6.096;2022-11-04T10:29:34;10.70;99.90
43043;DHT22;28667;50.758;6.096;2022-11-04T10:32:09;10.70;99.90
43043;DHT22;28667;50.758;6.096;2022-11-04T10:34:59;10.70;99.90
43043;DHT22;28667;50.758;6.096;2022-11-04T10:37:27;10.70;99.90
43043;DHT22;28667;50.758;6.096;2022-11-04T10:40:06;10.80;99.90
43043;DHT22;28667;50.758;6.096;2022-11-04T10:42:40;10.80;99.90
43043;DHT22;28667;50.758;6.096;2022-11-04T10:45:13;10.90;99.90
43043;DHT22;28667;50.758;6.096;2022-11-04T10:48:07;10.90;99.90
43043;DHT22;28667;50.758;6.096;2022-11-04T10:50:40;11.00;99.90
43043;DHT22;28667;50.758;6.096;2022-11-04T10:53:14;11.00;99.90
43043;DHT22;28667;50.758;6.096;2022-11-04T10:58:34;11.10;99.90
43043;DHT22;28667;50.758;6.096;2022-11-04T11:01:29;11.10;99.90
43043;DHT22;28667;50.758;6.096;2022-11-04T11:03:55;11.10;99.90
43043;DHT22;28667;50.758;6.096;2022-11-04T11:06:30;11.10;99.90
43043;DHT22;28667;50.758;6.096;2022-11-04T11:09:00;11.20;99.90
43043;DHT22;28667;50.758;6.096;2022-11-04T11:11:53;11.20;99.90
43043;DHT22;28667;50.758;6.096;2022-11-04T11:16:56;11.40;99.90
43043;DHT22;28667;50.758;6.096;2022-11-04T11:19:23;11.50;99.90
43043;DHT22;28667;50.758;6.096;2022-11-04T11:21:52;11.50;99.90
43043;DHT22;28667;50.758;6.096;2022-11-04T11:24:26;11.60;99.90
43043;DHT22;28667;50.758;6.096;2022-11-04T11:26:57;11.70;99.90
43043;DHT22;28667;50.758;6.096;2022-11-04T11:29:31;11.80;99.90
43043;DHT22;28667;50.758;6.096;2022-11-04T11:32:05;11.80;99.90
43043;DHT22;28667;50.758;6.096;2022-11-04T11:34:42;11.90;99.90
43043;DHT22;28667;50.758;6.096;2022-11-04T11:37:21;12.00;99.90
43043;DHT22;28667;50.758;6.096;2022-11-04T11:39:48;12.00;99.90
43043;DHT22;28667;50.758;6.096;2022-11-04T11:42:15;12.10;99.90
43043;DHT22;28667;50.758;6.096;2022-11-04T11:45:12;12.10;99.90
43043;DHT22;28667;50.758;6.096;2022-11-04T11:47:44;12.20;99.90
43043;DHT22;28667;50.758;6.096;2022-11-04T11:50:22;12.20;99.90
43043;DHT22;28667;50.758;6.096;2022-11-04T11:52:51;12.20;99.90
43043;DHT22;28667;50.758;6.096;2022-11-04T11:55:26;12.30;99.90
43043;DHT22;28667;50.758;6.096;2022-11-04T11:58:04;12.20;99.90
43043;DHT22;28667;50.758;6.096;2022-11-04T12:00:35;12.20;99.90
43043;DHT22;28667;50.758;6.096;2022-11-04T12:03:57;12.10;99.90
43043;DHT22;28667;50.758;6.096;2022-11-04T12:14:41;11.70;99.90
43043;DHT22;28667;50.758;6.096;2022-11-04T12:22:58;11.80;99.90
43043;DHT22;28667;50.758;6.096;2022-11-04T12:39:57;11.70;99.90
43043;DHT22;28667;50.758;6.096;2022-11-04T12:45:35;11.50;99.90
43043;DHT22;28667;50.758;6.096;2022-11-04T12:48:19;11.50;99.90
43043;DHT22;28667;50.758;6.096;2022-11-04T12:51:09;11.50;99.90
43043;DHT22;28667;50.758;6.096;2022-11-04T12:53:58;11.50;99.90
43043;DHT22;28667;50.758;6.096;2022-11-04T12:56:36;11.60;99.90
43043;DHT22;28667;50.758;6.096;2022-11-04T13:01:41;11.50;99.90
43043;DHT22;28667;50.758;6.096;2022-11-04T13:04:38;11.50;99.90
43043;DHT22;28667;50.758;6.096;2022-11-04T13:07:17;11.50;99.90
43043;DHT22;28667;50.758;6.096;2022-11-04T13:10:26;11.70;99.90
43043;DHT22;28667;50.758;6.096;2022-11-04T13:12:56;11.60;99.90
43043;DHT22;28667;50.758;6.096;2022-11-04T13:15:27;11.50;99.90
43043;DHT22;28667;50.758;6.096;2022-11-04T13:18:03;11.50;99.90
43043;DHT22;28667;50.758;6.096;2022-11-04T13:20:44;11.40;99.90
43043;DHT22;28667;50.758;6.096;2022-11-04T13:23:39;11.30;99.90
43043;DHT22;28667;50.758;6.096;2022-11-04T13:26:04;11.20;99.90
43043;DHT22;28667;50.758;6.096;2022-11-04T13:28:31;11.10;99.90
43043;DHT22;28667;50.758;6.096;2022-11-04T13:31:04;11.10;99.90
43043;DHT22;28667;50.758;6.096;2022-11-04T13:39:22;10.90;99.90
43043;DHT22;28667;50.758;6.096;2022-11-04T13:44:44;10.70;99.90
43043;DHT22;28667;50.758;6.096;2022-11-04T13:47:19;10.60;99.90
43043;DHT22;28667;50.758;6.096;2022-11-04T13:49:54;10.60;99.90
43043;DHT22;28667;50.758;6.096;2022-11-04T13:52:21;10.60;99.90
43043;DHT22;28667;50.758;6.096;2022-11-04T13:54:54;10.60;99.90
43043;DHT22;28667;50.758;6.096;2022-11-04T13:57:29;10.60;99.90
43043;DHT22;28667;50.758;6.096;2022-11-04T14:18:38;10.40;99.90
43043;DHT22;28667;50.758;6.096;2022-11-04T14:23:52;10.60;99.90
43043;DHT22;28667;50.758;6.096;2022-11-04T14:26:27;10.60;99.90
43043;DHT22;28667;50.758;6.096;2022-11-04T14:29:05;10.60;99.90
43043;DHT22;28667;50.758;6.096;2022-11-04T14:31:39;10.70;99.90
43043;DHT22;28667;50.758;6.096;2022-11-04T14:34:07;10.70;99.90
43043;DHT22;28667;50.758;6.096;2022-11-04T14:36:57;10.70;99.90
43043;DHT22;28667;50.758;6.096;2022-11-04T14:39:28;10.80;99.90
43043;DHT22;28667;50.758;6.096;2022-11-04T14:42:02;10.80;99.90
43043;DHT22;28667;50.758;6.096;2022-11-04T14:44:47;10.90;99.90
43043;DHT22;28667;50.758;6.096;2022-11-04T14:47:25;10.90;99.90
43043;DHT22;28667;50.758;6.096;2022-11-04T14:50:05;11.00;99.90
43043;DHT22;28667;50.758;6.096;2022-11-04T14:55:15;11.00;99.90
43043;DHT22;28667;50.758;6.096;2022-11-04T14:57:47;10.90;99.90
43043;DHT22;28667;50.758;6.096;2022-11-04T15:03:13;10.90;99.90
43043;DHT22;28667;50.758;6.096;2022-11-04T15:06:00;10.90;99.90
43043;DHT22;28667;50.758;6.096;2022-11-04T15:08:41;10.80;99.90
43043;DHT22;28667;50.758;6.096;2022-11-04T15:11:20;10.80;99.90
43043;DHT22;28667;50.758;6.096;2022-11-04T15:14:20;10.70;99.90
43043;DHT22;28667;50.758;6.096;2022-11-04T15:16:52;10.70;99.90
43043;DHT22;28667;50.758;6.096;2022-11-04T15:19:30;10.70;99.90
43043;DHT22;28667;50.758;6.096;2022-11-04T15:22:05;10.70;99.90
43043;DHT22;28667;50.758;6.096;2022-11-04T15:24:32;10.60;99.90
43043;DHT22;28667;50.758;6.096;2022-11-04T15:27:02;10.60;99.90
43043;DHT22;28667;50.758;6.096;2022-11-04T15:29:29;10.60;99.90
43043;DHT22;28667;50.758;6.096;2022-11-04T15:31:57;10.60;99.90
43043;DHT22;28667;50.758;6.096;2022-11-04T15:34:27;10.60;99.90
43043;DHT22;28667;50.758;6.096;2022-11-04T15:36:57;10.60;99.90
43043;DHT22;28667;50.758;6.096;2022-11-04T15:39:35;10.50;99.90
43043;DHT22;28667;50.758;6.096;2022-11-04T15:42:06;10.50;99.90
43043;DHT22;28667;50.758;6.096;2022-11-04T15:44:53;10.50;99.90
43043;DHT22;28667;50.758;6.096;2022-11-04T15:47:23;10.50;99.90
43043;DHT22;28667;50.758;6.096;2022-11-04T15:49:51;10.40;99.90
43043;DHT22;28667;50.758;6.096;2022-11-04T15:52:22;10.40;99.90
43043;DHT22;28667;50.758;6.096;2022-11-04T15:54:50;10.40;99.90
43043;DHT22;28667;50.758;6.096;2022-11-04T15:59:55;10.30;99.90
43043;DHT22;28667;50.758;6.096;2022-11-04T16:02:34;10.30;99.90
43043;DHT22;28667;50.758;6.096;2022-11-04T16:07:35;10.20;99.90
43043;DHT22;28667;50.758;6.096;2022-11-04T16:10:02;10.30;99.90
43043;DHT22;28667;50.758;6.096;2022-11-04T16:12:34;10.20;99.90
43043;DHT22;28667;50.758;6.096;2022-11-04T16:15:00;10.20;99.90
43043;DHT22;28667;50.758;6.096;2022-11-04T16:17:27;10.20;99.90
43043;DHT22;28667;50.758;6.096;2022-11-04T16:19:57;10.20;99.90
43043;DHT22;28667;50.758;6.096;2022-11-04T16:22:32;10.20;99.90
43043;DHT22;28667;50.758;6.096;2022-11-04T16:25:01;10.20;99.90
43043;DHT22;28667;50.758;6.096;2022-11-04T16:27:29;10.20;99.90
43043;DHT22;28667;50.758;6.096;2022-11-04T16:30:08;10.20;99.90
43043;DHT22;28667;50.758;6.096;2022-11-04T16:32:43;10.10;99.90
43043;DHT22;28667;50.758;6.096;2022-11-04T16:35:18;10.10;99.90
43043;DHT22;28667;50.758;6.096;2022-11-04T16:37:45;10.10;99.90
43043;DHT22;28667;50.758;6.096;2022-11-04T16:40:11;10.10;99.90
43043;DHT22;28667;50.758;6.096;2022-11-04T16:42:37;10.10;99.90
43043;DHT22;28667;50.758;6.096;2022-11-04T16:45:03;10.10;99.90
43043;DHT22;28667;50.758;6.096;2022-11-04T16:47:32;10.10;99.90
43043;DHT22;28667;50.758;6.096;2022-11-04T16:50:00;10.10;99.90
43043;DHT22;28667;50.758;6.096;2022-11-04T16:52:26;10.00;99.90
43043;DHT22;28667;50.758;6.096;2022-11-04T16:54:53;10.00;99.90
43043;DHT22;28667;50.758;6.096;2022-11-04T16:57:23;10.00;99.90
43043;DHT22;28667;50.758;6.096;2022-11-04T16:59:51;10.00;99.90
43043;DHT22;28667;50.758;6.096;2022-11-04T17:02:34;9.90;99.90
43043;DHT22;28667;50.758;6.096;2022-11-04T17:05:12;9.90;99.90
43043;DHT22;28667;50.758;6.096;2022-11-04T17:07:52;9.90;99.90
43043;DHT22;28667;50.758;6.096;2022-11-04T17:10:25;9.90;99.90
43043;DHT22;28667;50.758;6.096;2022-11-04T17:12:51;9.90;99.90
43043;DHT22;28667;50.758;6.096;2022-11-04T17:15:21;9.90;99.90
43043;DHT22;28667;50.758;6.096;2022-11-04T17:17:48;9.90;99.90
43043;DHT22;28667;50.758;6.096;2022-11-04T17:20:16;9.80;99.90
43043;DHT22;28667;50.758;6.096;2022-11-04T17:22:43;9.80;99.90
43043;DHT22;28667;50.758;6.096;2022-11-04T17:25:21;9.90;99.90
43043;DHT22;28667;50.758;6.096;2022-11-04T17:27:48;9.90;99.90
43043;DHT22;28667;50.758;6.096;2022-11-04T17:30:20;9.90;99.90
43043;DHT22;28667;50.758;6.096;2022-11-04T17:32:47;9.90;99.90
43043;DHT22;28667;50.758;6.096;2022-11-04T17:35:15;9.90;99.90
43043;DHT22;28667;50.758;6.096;2022-11-04T17:37:42;9.90;99.90
43043;DHT22;28667;50.758;6.096;2022-11-04T17:40:20;9.90;99.90
43043;DHT22;28667;50.758;6.096;2022-11-04T17:42:46;9.90;99.90
43043;DHT22;28667;50.758;6.096;2022-11-04T17:45:31;9.90;99.90
43043;DHT22;28667;50.758;6.096;2022-11-04T17:48:04;9.90;99.90
43043;DHT22;28667;50.758;6.096;2022-11-04T17:50:31;9.90;99.90
43043;DHT22;28667;50.758;6.096;2022-11-04T17:52:57;9.80;99.90
43043;DHT22;28667;50.758;6.096;2022-11-04T17:55:24;9.80;99.90
43043;DHT22;28667;50.758;6.096;2022-11-04T17:57:56;9.80;99.90
43043;DHT22;28667;50.758;6.096;2022-11-04T18:00:32;9.80;99.90
43043;DHT22;28667;50.758;6.096;2022-11-04T18:03:05;9.80;99.90
43043;DHT22;28667;50.758;6.096;2022-11-04T18:05:39;9.80;99.90
43043;DHT22;28667;50.758;6.096;2022-11-04T18:08:14;9.80;99.90
43043;DHT22;28667;50.758;6.096;2022-11-04T18:10:41;9.90;99.90
43043;DHT22;28667;50.758;6.096;2022-11-04T18:13:07;9.80;99.90
43043;DHT22;28667;50.758;6.096;2022-11-04T18:15:33;9.80;99.90
43043;DHT22;28667;50.758;6.096;2022-11-04T18:18:02;9.80;99.90
43043;DHT22;28667;50.758;6.096;2022-11-04T18:20:29;9.70;99.90
43043;DHT22;28667;50.758;6.096;2022-11-04T18:22:56;9.70;99.90
43043;DHT22;28667;50.758;6.096;2022-11-04T18:25:28;9.60;99.90
43043;DHT22;28667;50.758;6.096;2022-11-04T18:27:57;9.60;99.90
43043;DHT22;28667;50.758;6.096;2022-11-04T18:30:23;9.60;99.90
43043;DHT22;28667;50.758;6.096;2022-11-04T18:32:52;9.50;99.90